createdAt,value
2022-08-18T00:03:00.404Z,9.40
2022-08-18T00:07:02.125Z,9.23
2022-08-18T00:11:04.476Z,10.88
2022-08-18T00:15:05.801Z,8.13
2022-08-18T00:19:09.407Z,8.60
2022-08-18T00:23:13.383Z,8.65
2022-08-18T00:27:17.111Z,8.25
2022-08-18T00:31:17.690Z,9.13
2022-08-18T00:35:20.793Z,8.88
2022-08-18T00:39:23.452Z,8.50
2022-08-18T00:43:39.845Z,9.35
2022-08-18T00:47:42.768Z,9.00
2022-08-18T00:51:47.874Z,8.75
2022-08-18T00:55:54.250Z,9.93
2022-08-18T01:00:10.869Z,9.25
2022-08-18T01:04:15.110Z,8.25
2022-08-18T01:08:29.008Z,8.60
2022-08-18T01:12:45.398Z,8.35
2022-08-18T01:17:09.271Z,9.85
2022-08-18T01:21:35.062Z,9.07
2022-08-18T01:25:55.776Z,9.00
2022-08-18T01:29:55.910Z,9.77
2022-08-18T01:33:56.618Z,9.65
2022-08-18T01:37:57.798Z,14.23
2022-08-18T01:42:01.245Z,9.68
2022-08-18T01:46:00.834Z,11.65
2022-08-18T01:50:01.067Z,10.07
2022-08-18T01:54:01.511Z,11.20
2022-08-18T01:58:04.676Z,11.63
2022-08-18T02:02:04.352Z,11.23
2022-08-18T02:06:11.185Z,9.73
2022-08-18T02:10:15.327Z,9.63
2022-08-18T02:14:33.731Z,10.00
2022-08-18T02:18:47.623Z,10.75
2022-08-18T02:22:49.642Z,11.02
2022-08-18T02:26:49.830Z,11.35
2022-08-18T02:30:51.336Z,11.48
2022-08-18T02:34:51.354Z,12.02
2022-08-18T02:38:59.170Z,12.02
2022-08-18T02:42:59.874Z,11.52
2022-08-18T02:47:02.908Z,12.68
2022-08-18T02:51:04.070Z,9.60
2022-08-18T02:55:04.615Z,9.90
2022-08-18T02:59:08.300Z,11.52
2022-08-18T03:03:11.019Z,10.90
2022-08-18T03:07:11.219Z,10.80
2022-08-18T03:11:11.384Z,11.57
2022-08-18T03:15:12.738Z,10.73
2022-08-18T03:19:16.008Z,10.48
2022-08-18T03:23:16.501Z,11.30
2022-08-18T03:27:16.535Z,11.32
2022-08-18T03:31:17.962Z,11.40
2022-08-18T03:35:19.783Z,11.90
2022-08-18T03:39:23.123Z,10.85
2022-08-18T03:43:50.210Z,9.65
2022-08-18T03:47:45.551Z,10.85
2022-08-18T03:51:51.332Z,10.50
2022-08-18T03:55:50.637Z,10.20
2022-08-18T03:59:50.698Z,13.27
2022-08-18T04:03:54.141Z,10.85
2022-08-18T04:07:56.857Z,9.60
2022-08-18T04:11:58.008Z,10.95
2022-08-18T04:16:01.864Z,12.52
2022-08-18T04:20:01.349Z,16.30
2022-08-18T04:24:04.732Z,15.63
2022-08-18T04:28:04.823Z,12.23
2022-08-18T04:32:06.936Z,12.00
2022-08-18T04:36:12.218Z,10.50
2022-08-18T04:40:24.458Z,10.98
2022-08-18T04:44:25.374Z,10.98
2022-08-18T04:48:24.877Z,13.88
2022-08-18T04:52:42.035Z,11.70
2022-08-18T04:56:44.290Z,11.45
2022-08-18T05:00:45.462Z,11.45
2022-08-18T05:04:46.769Z,10.07
2022-08-18T05:08:46.783Z,9.95
2022-08-18T05:12:49.730Z,8.93
2022-08-18T05:16:49.797Z,10.43
2022-08-18T05:28:23.620Z,8.38
2022-08-18T05:33:48.108Z,8.18
2022-08-18T05:38:01.152Z,8.80
2022-08-18T05:42:07.853Z,9.20
2022-08-18T05:46:09.626Z,8.93
2022-08-18T05:50:12.404Z,9.77
2022-08-18T05:54:31.200Z,8.43
2022-08-18T05:58:36.272Z,10.57
2022-08-18T06:02:40.332Z,9.65
2022-08-18T06:06:44.146Z,11.23
2022-08-18T06:10:50.490Z,10.75
2022-08-18T06:14:50.475Z,9.57
2022-08-18T06:18:56.760Z,9.90
2022-08-18T06:23:06.434Z,10.13
2022-08-18T06:27:14.177Z,9.82
2022-08-18T06:35:26.559Z,10.05
2022-08-18T06:39:33.871Z,9.20
2022-08-18T06:43:44.114Z,9.60
2022-08-18T06:47:53.216Z,9.50
2022-08-18T06:52:33.230Z,11.13
2022-08-18T06:57:33.190Z,9.30
2022-08-18T07:01:35.478Z,10.50
2022-08-18T07:05:40.970Z,10.90
2022-08-18T07:09:40.331Z,11.43
2022-08-18T07:13:44.282Z,10.05
2022-08-18T07:17:51.531Z,11.30
2022-08-18T07:22:06.285Z,9.77
2022-08-18T07:26:13.522Z,9.30
2022-08-18T07:30:27.544Z,10.00
2022-08-18T07:34:48.333Z,9.93
2022-08-18T07:39:02.205Z,10.00
2022-08-18T07:43:05.877Z,9.65
2022-08-18T07:47:17.790Z,9.38
2022-08-18T07:51:26.970Z,9.57
2022-08-18T07:55:35.309Z,9.25
2022-08-18T07:59:41.762Z,8.90
2022-08-18T08:04:25.442Z,9.75
2022-08-18T08:08:59.242Z,9.55
2022-08-18T08:13:09.750Z,8.93
2022-08-18T08:17:29.521Z,8.60
2022-08-18T08:21:35.135Z,9.25
2022-08-18T08:26:08.092Z,8.05
2022-08-18T08:30:10.764Z,8.95
2022-08-18T08:34:21.732Z,8.38
2022-08-18T08:38:42.165Z,9.05
2022-08-18T08:43:07.208Z,8.20
2022-08-18T14:45:58.106Z,7.47
2022-08-18T14:50:01.626Z,7.32
2022-08-18T14:54:07.423Z,6.95
2022-08-18T14:58:11.602Z,7.80
2022-08-18T15:02:27.642Z,6.88
2022-08-18T15:06:27.837Z,8.35
2022-08-18T15:10:28.454Z,7.57
2022-08-18T15:14:33.253Z,7.43
2022-08-18T15:19:58.372Z,7.50
2022-08-18T15:23:41.962Z,7.40
2022-08-18T15:27:43.495Z,7.78
2022-08-18T15:31:50.812Z,7.50
2022-08-18T15:35:57.641Z,7.38
2022-08-18T15:40:05.311Z,8.23
2022-08-18T15:44:07.540Z,7.90
2022-08-18T15:48:10.300Z,8.30
2022-08-18T15:52:19.789Z,8.18
2022-08-18T15:56:21.794Z,8.07
2022-08-18T16:00:22.275Z,8.43
2022-08-18T16:04:32.642Z,7.80
2022-08-18T16:08:57.202Z,7.95
2022-08-18T16:13:22.305Z,9.02
2022-08-18T16:17:36.469Z,10.07
2022-08-18T16:21:39.778Z,7.75
2022-08-18T16:25:42.955Z,9.35
2022-08-18T16:29:42.850Z,7.60
2022-08-18T16:33:43.094Z,8.30
2022-08-18T16:37:50.010Z,8.55
2022-08-18T16:41:54.204Z,9.25
2022-08-18T16:45:55.596Z,8.52
2022-08-18T16:49:58.466Z,8.93
2022-08-18T16:54:22.768Z,8.90
2022-08-18T17:03:53.641Z,10.43
2022-08-18T17:08:03.894Z,13.48
2022-08-18T17:12:40.484Z,9.10
2022-08-18T17:16:44.314Z,8.70
2022-08-18T17:20:50.482Z,9.18
2022-08-18T17:24:51.526Z,8.50
2022-08-18T18:04:29.465Z,9.75
2022-08-18T18:16:05.958Z,10.25
2022-08-18T18:32:40.670Z,9.10
2022-08-18T18:38:08.045Z,9.48
2022-08-18T18:44:10.812Z,9.25
2022-08-18T19:39:33.941Z,10.45
2022-08-18T20:03:37.978Z,8.82
2022-08-18T21:01:39.759Z,10.50
2022-08-18T22:48:16.904Z,9.95
2022-08-18T23:29:48.895Z,9.82
